Presque Isle, MI (49777)

7:44 PM EST on February 27, 2015 (GMT -0500)
Lotus Lake | Change Station
CLOSE
Current Station
Personal Weather Station
Location: Presque Isle, MI
Elevation: 617 ft
Nearby Weather Stations

Elev 617 ft 45.30 °N, 83.48 °W | Updated 7 minutes ago

Clear
Clear
7.5 °F
Feels Like 8 °F
N
2.2
Wind Variable Wind from NNE

Today
High -- | Low -- °F
--% Chance of Precip.
Yesterday
High -- | Low -- °F
Precip. -- in
7:16 AM 6:18 PM
Waxing Gibbous, 73% visible
Pressure 30.50 in
Visibility 10.0 miles
Clouds Clear
Windchill 8 °F
Dew Point 1 °F
Humidity 75%
Rainfall 0.00 in
Snow Depth Not available.
UV 0 out of 12
Pollen .30 out of 12
Air Quality Not available.
Flu Activity Not available.
METAR KPZQ 280034Z AUTO 26003KT 10SM CLR M13/M17 A3050 RMK AO2 T11301169

More Conditions Fewer Conditions

Pressure 30.50 in
Visibility 10.0 miles
Clouds Clear
Windchill 8 °F
Dew Point 1 °F
Humidity 75%
Rainfall 0.00 in
Snow Depth Not available.
UV 0 out of 12
Pollen .30 out of 12
Air Quality Not available.
Flu Activity Not available.
METAR KPZQ 280034Z AUTO 26003KT 10SM CLR M13/M17 A3050 RMK AO2 T11301169

More Conditions Fewer Conditions

Nowcast | as of 6:00 PM EST on February 27, 2015

At 7 PM...clear. Temperature 9 above. West winds 5 mph. At 9 PM...clear. Temperature 2 above. Light winds. At 11 PM...clear. Temperature 4 below. Light winds. At 1 am...clear. Temperature 3 below. Southwest winds 7 mph.

×

10-Day Weather Forecast

Almanac

Astronomy

Feb. 27, 2015 Rise Set
Actual Time
Civil Twilight
Nautical Twilight
Astronomical Twilight
Moon
Length of Visible Light
Length of Day
Tomorrow will be .
, % of the Moon is Illuminated

Today's Extremes

State Highs State Lows

Community

WunderPhotos

Upload Photos

1,800,910 photos uploaded!

WunderBlogs® & News

Nearby

Air Quality

  Air Quality AQ Index Pollutant
Not available.

Snow Depth

Station Depth Elevation

Earthquake Activity

City Distance Mag. Time & Date
Minimum magnitude displayed is 2.5.

Coastal Water Temperatures

Place Temperature

Nearby Weather Stations